sensor_id;sensor_type;location;lat;lon;timestamp;pressure;altitude;pressure_sealevel;temperature;humidity
63204;BME280;49297;43.210;27.914;2023-08-20T00:00:28;101155.13;;;25.99;50.12
63204;BME280;49297;43.210;27.914;2023-08-20T00:03:10;101160.31;;;26.01;50.47
63204;BME280;49297;43.210;27.914;2023-08-20T00:05:38;101161.75;;;26.03;51.39
63204;BME280;49297;43.210;27.914;2023-08-20T00:08:04;101168.84;;;26.05;52.85
63204;BME280;49297;43.210;27.914;2023-08-20T00:10:31;101161.75;;;26.03;52.82
63204;BME280;49297;43.210;27.914;2023-08-20T00:12:57;101169.50;;;26.00;53.53
63204;BME280;49297;43.210;27.914;2023-08-20T00:15:23;101167.47;;;25.95;53.32
63204;BME280;49297;43.210;27.914;2023-08-20T00:17:53;101176.06;;;25.92;53.44
63204;BME280;49297;43.210;27.914;2023-08-20T00:20:19;101167.56;;;25.89;53.41
63204;BME280;49297;43.210;27.914;2023-08-20T00:22:46;101169.28;;;25.83;53.74
63204;BME280;49297;43.210;27.914;2023-08-20T00:25:12;101172.69;;;25.78;53.86
63204;BME280;49297;43.210;27.914;2023-08-20T00:27:39;101169.59;;;25.75;54.06
63204;BME280;49297;43.210;27.914;2023-08-20T00:30:06;101159.19;;;25.72;53.70
63204;BME280;49297;43.210;27.914;2023-08-20T00:32:31;101167.56;;;25.70;53.37
63204;BME280;49297;43.210;27.914;2023-08-20T00:34:57;101162.13;;;25.70;53.15
63204;BME280;49297;43.210;27.914;2023-08-20T00:37:23;101170.53;;;25.69;53.00
63204;BME280;49297;43.210;27.914;2023-08-20T00:39:49;101168.25;;;25.65;53.54
63204;BME280;49297;43.210;27.914;2023-08-20T00:42:15;101163.88;;;25.64;54.52
63204;BME280;49297;43.210;27.914;2023-08-20T00:44:41;101163.94;;;25.58;54.96
63204;BME280;49297;43.210;27.914;2023-08-20T00:47:10;101166.38;;;25.48;54.82
63204;BME280;49297;43.210;27.914;2023-08-20T00:49:36;101165.41;;;25.42;54.86
63204;BME280;49297;43.210;27.914;2023-08-20T00:52:03;101161.47;;;25.38;55.04
63204;BME280;49297;43.210;27.914;2023-08-20T00:54:29;101173.59;;;25.35;54.68
63204;BME280;49297;43.210;27.914;2023-08-20T00:56:58;101167.81;;;25.32;54.89
63204;BME280;49297;43.210;27.914;2023-08-20T00:59:24;101164.50;;;25.30;55.21
63204;BME280;49297;43.210;27.914;2023-08-20T01:01:50;101165.53;;;25.29;55.51
63204;BME280;49297;43.210;27.914;2023-08-20T01:04:16;101174.28;;;25.24;56.21
63204;BME280;49297;43.210;27.914;2023-08-20T01:11:54;101165.72;;;25.08;56.17
63204;BME280;49297;43.210;27.914;2023-08-20T01:14:20;101174.88;;;25.07;56.02
63204;BME280;49297;43.210;27.914;2023-08-20T01:16:46;101172.38;;;25.06;55.70
63204;BME280;49297;43.210;27.914;2023-08-20T01:19:18;101171.13;;;25.08;55.70
63204;BME280;49297;43.210;27.914;2023-08-20T01:25:18;101170.75;;;25.05;55.80
63204;BME280;49297;43.210;27.914;2023-08-20T01:30:21;101163.28;;;25.00;55.94
63204;BME280;49297;43.210;27.914;2023-08-20T01:32:49;101166.66;;;24.96;56.15
63204;BME280;49297;43.210;27.914;2023-08-20T01:35:16;101169.22;;;24.91;56.56
63204;BME280;49297;43.210;27.914;2023-08-20T01:37:43;101171.31;;;24.88;56.48
63204;BME280;49297;43.210;27.914;2023-08-20T01:40:10;101167.97;;;24.86;56.89
63204;BME280;49297;43.210;27.914;2023-08-20T01:42:40;101167.38;;;24.84;56.68
63204;BME280;49297;43.210;27.914;2023-08-20T01:45:07;101166.78;;;24.82;56.68
63204;BME280;49297;43.210;27.914;2023-08-20T01:47:33;101165.34;;;24.80;56.79
63204;BME280;49297;43.210;27.914;2023-08-20T01:49:59;101169.31;;;24.77;56.70
63204;BME280;49297;43.210;27.914;2023-08-20T01:52:25;101166.59;;;24.77;56.73
63204;BME280;49297;43.210;27.914;2023-08-20T01:54:51;101166.59;;;24.77;56.44
63204;BME280;49297;43.210;27.914;2023-08-20T01:57:18;101161.63;;;24.74;56.40
63204;BME280;49297;43.210;27.914;2023-08-20T01:59:44;101159.59;;;24.69;56.64
63204;BME280;49297;43.210;27.914;2023-08-20T02:02:10;101160.84;;;24.67;56.45
63204;BME280;49297;43.210;27.914;2023-08-20T02:04:36;101155.28;;;24.62;56.97
63204;BME280;49297;43.210;27.914;2023-08-20T02:07:02;101155.50;;;24.60;56.94
63204;BME280;49297;43.210;27.914;2023-08-20T02:09:27;101154.44;;;24.61;57.39
63204;BME280;49297;43.210;27.914;2023-08-20T02:11:53;101153.41;;;24.62;57.55
63204;BME280;49297;43.210;27.914;2023-08-20T02:14:19;101156.94;;;24.63;57.52
63204;BME280;49297;43.210;27.914;2023-08-20T02:16:46;101157.75;;;24.63;57.40
63204;BME280;49297;43.210;27.914;2023-08-20T02:19:12;101151.72;;;24.61;57.26
63204;BME280;49297;43.210;27.914;2023-08-20T02:21:37;101153.22;;;24.57;57.75
63204;BME280;49297;43.210;27.914;2023-08-20T02:24:04;101157.44;;;24.53;58.03
63204;BME280;49297;43.210;27.914;2023-08-20T02:26:29;101159.53;;;24.44;58.86
63204;BME280;49297;43.210;27.914;2023-08-20T02:28:55;101155.88;;;24.32;59.20
63204;BME280;49297;43.210;27.914;2023-08-20T02:31:21;101158.41;;;24.27;59.48
63204;BME280;49297;43.210;27.914;2023-08-20T02:33:47;101162.59;;;24.23;59.32
63204;BME280;49297;43.210;27.914;2023-08-20T02:36:13;101166.75;;;24.19;59.24
63204;BME280;49297;43.210;27.914;2023-08-20T02:38:38;101167.84;;;24.18;58.88
63204;BME280;49297;43.210;27.914;2023-08-20T02:41:04;101169.72;;;24.17;58.79
63204;BME280;49297;43.210;27.914;2023-08-20T02:43:32;101177.44;;;24.13;58.38
63204;BME280;49297;43.210;27.914;2023-08-20T02:45:57;101172.44;;;24.10;58.27
63204;BME280;49297;43.210;27.914;2023-08-20T02:48:23;101179.31;;;24.06;58.17
63204;BME280;49297;43.210;27.914;2023-08-20T02:50:53;101171.47;;;23.98;58.19
63204;BME280;49297;43.210;27.914;2023-08-20T02:53:20;101175.00;;;23.99;57.97
63204;BME280;49297;43.210;27.914;2023-08-20T02:55:46;101172.31;;;23.92;58.19
63204;BME280;49297;43.210;27.914;2023-08-20T02:58:12;101179.81;;;23.90;58.10
63204;BME280;49297;43.210;27.914;2023-08-20T03:00:37;101172.16;;;23.87;58.04
63204;BME280;49297;43.210;27.914;2023-08-20T03:03:03;101172.97;;;23.87;57.95
63204;BME280;49297;43.210;27.914;2023-08-20T03:05:33;101175.06;;;23.85;57.97
63204;BME280;49297;43.210;27.914;2023-08-20T03:07:58;101169.06;;;23.83;57.98
63204;BME280;49297;43.210;27.914;2023-08-20T03:10:25;101178.41;;;23.81;57.93
63204;BME280;49297;43.210;27.914;2023-08-20T03:12:51;101180.91;;;23.82;57.95
63204;BME280;49297;43.210;27.914;2023-08-20T03:15:16;101175.50;;;23.82;57.86
63204;BME280;49297;43.210;27.914;2023-08-20T03:17:42;101175.69;;;23.81;58.02
63204;BME280;49297;43.210;27.914;2023-08-20T03:20:09;101175.28;;;23.84;58.01
63204;BME280;49297;43.210;27.914;2023-08-20T03:22:36;101171.13;;;23.81;58.44
63204;BME280;49297;43.210;27.914;2023-08-20T03:25:03;101173.66;;;23.69;59.00
63204;BME280;49297;43.210;27.914;2023-08-20T03:27:28;101170.13;;;23.62;59.41
63204;BME280;49297;43.210;27.914;2023-08-20T03:29:54;101171.59;;;23.58;59.51
63204;BME280;49297;43.210;27.914;2023-08-20T03:32:20;101170.56;;;23.59;59.84
63204;BME280;49297;43.210;27.914;2023-08-20T03:34:46;101170.56;;;23.59;59.99
63204;BME280;49297;43.210;27.914;2023-08-20T03:37:12;101171.78;;;23.63;59.93
63204;BME280;49297;43.210;27.914;2023-08-20T03:39:38;101172.63;;;23.64;59.86
63204;BME280;49297;43.210;27.914;2023-08-20T03:42:04;101165.34;;;23.64;59.87
63204;BME280;49297;43.210;27.914;2023-08-20T03:44:30;101167.63;;;23.67;59.38
63204;BME280;49297;43.210;27.914;2023-08-20T03:46:56;101170.53;;;23.66;59.71
63204;BME280;49297;43.210;27.914;2023-08-20T03:49:22;101170.75;;;23.64;59.11
63204;BME280;49297;43.210;27.914;2023-08-20T03:51:48;101168.47;;;23.61;59.65
63204;BME280;49297;43.210;27.914;2023-08-20T03:54:14;101171.81;;;23.56;59.62
63204;BME280;49297;43.210;27.914;2023-08-20T03:56:39;101165.56;;;23.56;59.95
63204;BME280;49297;43.210;27.914;2023-08-20T03:59:05;101169.53;;;23.60;59.82
63204;BME280;49297;43.210;27.914;2023-08-20T04:01:31;101169.94;;;23.64;59.53
63204;BME280;49297;43.210;27.914;2023-08-20T04:03:57;101176.97;;;23.71;59.50
63204;BME280;49297;43.210;27.914;2023-08-20T04:06:23;101172.16;;;23.73;59.28
63204;BME280;49297;43.210;27.914;2023-08-20T04:08:48;101173.00;;;23.81;59.15
63204;BME280;49297;43.210;27.914;2023-08-20T04:11:14;101175.25;;;23.90;58.81
63204;BME280;49297;43.210;27.914;2023-08-20T04:13:40;101167.16;;;23.90;58.72
63204;BME280;49297;43.210;27.914;2023-08-20T04:16:08;101158.19;;;23.90;58.46
63204;BME280;49297;43.210;27.914;2023-08-20T04:18:34;101157.16;;;23.91;58.17
63204;BME280;49297;43.210;27.914;2023-08-20T04:21:00;101158.38;;;23.95;58.30
63204;BME280;49297;43.210;27.914;2023-08-20T04:23:25;101168.94;;;24.03;58.08
63204;BME280;49297;43.210;27.914;2023-08-20T04:25:51;101152.06;;;24.08;58.19
63204;BME280;49297;43.210;27.914;2023-08-20T04:28:18;101164.94;;;24.12;58.08
63204;BME280;49297;43.210;27.914;2023-08-20T04:30:44;101158.03;;;24.17;57.93
63204;BME280;49297;43.210;27.914;2023-08-20T04:33:09;101158.00;;;24.23;58.37
63204;BME280;49297;43.210;27.914;2023-08-20T04:35:35;101168.59;;;24.31;58.30
63204;BME280;49297;43.210;27.914;2023-08-20T04:38:02;101173.72;;;24.40;58.13
63204;BME280;49297;43.210;27.914;2023-08-20T04:40:28;101157.22;;;24.48;57.79
63204;BME280;49297;43.210;27.914;2023-08-20T04:42:54;101163.84;;;24.59;57.56
63204;BME280;49297;43.210;27.914;2023-08-20T04:45:20;101178.16;;;24.66;56.88
63204;BME280;49297;43.210;27.914;2023-08-20T04:47:46;101171.84;;;24.72;56.75
63204;BME280;49297;43.210;27.914;2023-08-20T04:50:12;101168.69;;;24.75;56.69
63204;BME280;49297;43.210;27.914;2023-08-20T04:52:39;101170.28;;;24.83;55.82
63204;BME280;49297;43.210;27.914;2023-08-20T04:55:06;101178.16;;;24.91;55.65
63204;BME280;49297;43.210;27.914;2023-08-20T04:57:34;101165.38;;;24.98;55.10
63204;BME280;49297;43.210;27.914;2023-08-20T05:00:00;101166.97;;;25.06;54.17
63204;BME280;49297;43.210;27.914;2023-08-20T05:02:25;101164.81;;;25.15;53.79
63204;BME280;49297;43.210;27.914;2023-08-20T05:04:51;101166.56;;;25.27;53.72
63204;BME280;49297;43.210;27.914;2023-08-20T05:07:17;101164.56;;;25.41;53.43
63204;BME280;49297;43.210;27.914;2023-08-20T05:09:43;101163.94;;;25.58;52.69
63204;BME280;49297;43.210;27.914;2023-08-20T05:12:09;101167.56;;;25.70;52.16
63204;BME280;49297;43.210;27.914;2023-08-20T05:14:35;101165.50;;;25.84;51.92
63204;BME280;49297;43.210;27.914;2023-08-20T05:17:00;101167.72;;;25.94;51.98
63204;BME280;49297;43.210;27.914;2023-08-20T05:19:26;101162.81;;;26.02;51.75
63204;BME280;49297;43.210;27.914;2023-08-20T05:21:52;101154.34;;;26.11;51.55
63204;BME280;49297;43.210;27.914;2023-08-20T05:24:22;101162.84;;;26.14;51.59
63204;BME280;49297;43.210;27.914;2023-08-20T05:27:15;101152.59;;;26.16;51.67
63204;BME280;49297;43.210;27.914;2023-08-20T05:29:43;101151.81;;;26.28;51.53
63204;BME280;49297;43.210;27.914;2023-08-20T05:32:09;101152.31;;;26.36;50.69
63204;BME280;49297;43.210;27.914;2023-08-20T05:34:35;101154.66;;;26.45;50.48
63204;BME280;49297;43.210;27.914;2023-08-20T05:37:01;101145.97;;;26.54;49.92
63204;BME280;49297;43.210;27.914;2023-08-20T05:39:27;101151.44;;;26.66;50.04
63204;BME280;49297;43.210;27.914;2023-08-20T05:41:56;101157.56;;;26.73;49.17
63204;BME280;49297;43.210;27.914;2023-08-20T05:44:22;101156.16;;;26.83;49.61
63204;BME280;49297;43.210;27.914;2023-08-20T05:46:48;101143.91;;;26.92;49.09
63204;BME280;49297;43.210;27.914;2023-08-20T05:49:14;101143.19;;;26.96;49.05
63204;BME280;49297;43.210;27.914;2023-08-20T05:51:43;101152.63;;;27.06;48.76
63204;BME280;49297;43.210;27.914;2023-08-20T05:54:10;101148.75;;;27.13;48.69
63204;BME280;49297;43.210;27.914;2023-08-20T05:56:37;101143.41;;;27.19;48.29
63204;BME280;49297;43.210;27.914;2023-08-20T05:59:03;101147.66;;;27.26;47.68
63204;BME280;49297;43.210;27.914;2023-08-20T06:01:29;101142.13;;;27.33;48.18
63204;BME280;49297;43.210;27.914;2023-08-20T06:03:55;101137.63;;;27.39;47.86
63204;BME280;49297;43.210;27.914;2023-08-20T06:06:21;101140.81;;;27.47;47.94
63204;BME280;49297;43.210;27.914;2023-08-20T06:08:47;101139.81;;;27.53;47.43
63204;BME280;49297;43.210;27.914;2023-08-20T06:11:13;101135.66;;;27.63;47.51
63204;BME280;49297;43.210;27.914;2023-08-20T06:13:39;101143.22;;;27.72;46.86
63204;BME280;49297;43.210;27.914;2023-08-20T06:16:06;101134.16;;;27.84;46.48
63204;BME280;49297;43.210;27.914;2023-08-20T06:18:32;101131.91;;;27.92;46.45
63204;BME280;49297;43.210;27.914;2023-08-20T06:20:58;101131.63;;;28.06;46.23
63204;BME280;49297;43.210;27.914;2023-08-20T06:23:23;101137.00;;;28.18;45.86
63204;BME280;49297;43.210;27.914;2023-08-20T06:25:52;101139.66;;;28.29;45.67
63204;BME280;49297;43.210;27.914;2023-08-20T06:28:19;101133.31;;;28.41;45.33
63204;BME280;49297;43.210;27.914;2023-08-20T06:30:45;101136.22;;;28.51;45.22
63204;BME280;49297;43.210;27.914;2023-08-20T06:33:11;101132.34;;;28.64;44.81
63204;BME280;49297;43.210;27.914;2023-08-20T06:35:38;101136.63;;;28.77;44.48
63204;BME280;49297;43.210;27.914;2023-08-20T06:38:03;101136.22;;;28.85;44.01
63204;BME280;49297;43.210;27.914;2023-08-20T06:40:30;101135.53;;;28.95;42.89
63204;BME280;49297;43.210;27.914;2023-08-20T06:42:56;101129.19;;;29.06;42.44
63204;BME280;49297;43.210;27.914;2023-08-20T06:45:22;101124.47;;;29.18;42.39
63204;BME280;49297;43.210;27.914;2023-08-20T06:47:47;101129.53;;;29.32;41.79
63204;BME280;49297;43.210;27.914;2023-08-20T06:50:13;101112.81;;;29.45;41.04
63204;BME280;49297;43.210;27.914;2023-08-20T06:52:39;101110.19;;;29.55;40.35
63204;BME280;49297;43.210;27.914;2023-08-20T06:55:05;101121.78;;;29.68;39.56
63204;BME280;49297;43.210;27.914;2023-08-20T06:57:30;101120.59;;;29.80;39.67
63204;BME280;49297;43.210;27.914;2023-08-20T06:59:57;101116.91;;;29.92;38.92
63204;BME280;49297;43.210;27.914;2023-08-20T07:02:22;101111.59;;;30.07;38.67
63204;BME280;49297;43.210;27.914;2023-08-20T07:04:48;101108.94;;;30.17;38.33
63204;BME280;49297;43.210;27.914;2023-08-20T07:07:14;101107.97;;;30.29;37.80
63204;BME280;49297;43.210;27.914;2023-08-20T07:09:40;101109.16;;;30.38;38.03
63204;BME280;49297;43.210;27.914;2023-08-20T07:12:06;101104.28;;;30.45;37.48
63204;BME280;49297;43.210;27.914;2023-08-20T07:14:32;101097.81;;;30.56;37.88
63204;BME280;49297;43.210;27.914;2023-08-20T07:16:59;101107.19;;;30.71;37.37
63204;BME280;49297;43.210;27.914;2023-08-20T07:19:25;101106.47;;;30.81;37.14
63204;BME280;49297;43.210;27.914;2023-08-20T07:21:51;101096.66;;;30.90;36.93
63204;BME280;49297;43.210;27.914;2023-08-20T07:24:16;101094.84;;;31.01;36.91
63204;BME280;49297;43.210;27.914;2023-08-20T07:26:42;101100.09;;;31.12;36.55
63204;BME280;49297;43.210;27.914;2023-08-20T07:29:09;101094.91;;;31.21;36.29
63204;BME280;49297;43.210;27.914;2023-08-20T07:31:35;101097.97;;;31.30;35.95
63204;BME280;49297;43.210;27.914;2023-08-20T07:34:02;101089.81;;;31.40;35.72
63204;BME280;49297;43.210;27.914;2023-08-20T07:36:28;101093.69;;;31.49;35.33
63204;BME280;49297;43.210;27.914;2023-08-20T07:38:55;101089.38;;;31.59;35.02
63204;BME280;49297;43.210;27.914;2023-08-20T07:41:21;101088.28;;;31.70;35.49
63204;BME280;49297;43.210;27.914;2023-08-20T07:43:48;101082.00;;;31.80;34.79
63204;BME280;49297;43.210;27.914;2023-08-20T07:46:15;101087.78;;;31.94;35.16
63204;BME280;49297;43.210;27.914;2023-08-20T07:48:41;101085.31;;;32.02;34.91
63204;BME280;49297;43.210;27.914;2023-08-20T07:51:08;101079.34;;;32.11;34.46
63204;BME280;49297;43.210;27.914;2023-08-20T07:53:34;101075.50;;;32.17;34.77
63204;BME280;49297;43.210;27.914;2023-08-20T07:56:00;101071.09;;;32.21;34.60
63204;BME280;49297;43.210;27.914;2023-08-20T07:58:26;101071.38;;;32.24;34.75
63204;BME280;49297;43.210;27.914;2023-08-20T08:00:52;101077.97;;;32.34;34.85
63204;BME280;49297;43.210;27.914;2023-08-20T08:03:18;101076.84;;;32.40;35.02
63204;BME280;49297;43.210;27.914;2023-08-20T08:05:47;101071.63;;;32.49;34.66
63204;BME280;49297;43.210;27.914;2023-08-20T08:08:15;101072.72;;;32.58;34.77
63204;BME280;49297;43.210;27.914;2023-08-20T08:10:41;101069.72;;;32.65;34.37
63204;BME280;49297;43.210;27.914;2023-08-20T08:13:13;101076.56;;;32.72;34.48
63204;BME280;49297;43.210;27.914;2023-08-20T08:15:39;101082.84;;;32.78;34.23
63204;BME280;49297;43.210;27.914;2023-08-20T08:18:06;101076.53;;;32.82;34.11
63204;BME280;49297;43.210;27.914;2023-08-20T08:20:32;101072.66;;;32.89;34.19
63204;BME280;49297;43.210;27.914;2023-08-20T08:22:58;101072.09;;;32.97;34.04
63204;BME280;49297;43.210;27.914;2023-08-20T08:25:24;101077.56;;;33.02;34.01
63204;BME280;49297;43.210;27.914;2023-08-20T08:27:49;101078.09;;;33.09;33.61
63204;BME280;49297;43.210;27.914;2023-08-20T08:30:15;101072.34;;;33.16;33.43
63204;BME280;49297;43.210;27.914;2023-08-20T08:32:41;101067.13;;;33.19;33.32
63204;BME280;49297;43.210;27.914;2023-08-20T08:35:07;101070.66;;;33.25;33.33
63204;BME280;49297;43.210;27.914;2023-08-20T08:37:33;101070.09;;;33.28;33.37
63204;BME280;49297;43.210;27.914;2023-08-20T08:39:59;101067.28;;;33.33;33.71
63204;BME280;49297;43.210;27.914;2023-08-20T08:42:25;101065.06;;;33.41;33.09
63204;BME280;49297;43.210;27.914;2023-08-20T08:44:51;101058.75;;;33.45;32.46
63204;BME280;49297;43.210;27.914;2023-08-20T08:47:22;101072.97;;;33.52;32.97
63204;BME280;49297;43.210;27.914;2023-08-20T08:49:48;101061.69;;;33.59;32.45
63204;BME280;49297;43.210;27.914;2023-08-20T08:52:15;101074.25;;;33.65;32.54
63204;BME280;49297;43.210;27.914;2023-08-20T08:54:41;101059.72;;;33.70;32.04
63204;BME280;49297;43.210;27.914;2023-08-20T08:57:08;101078.91;;;33.75;31.94
63204;BME280;49297;43.210;27.914;2023-08-20T08:59:33;101069.25;;;33.78;32.01
63204;BME280;49297;43.210;27.914;2023-08-20T09:01:59;101063.78;;;33.78;31.39
63204;BME280;49297;43.210;27.914;2023-08-20T09:04:25;101049.75;;;33.79;31.99
63204;BME280;49297;43.210;27.914;2023-08-20T09:06:52;101066.50;;;33.78;30.81
63204;BME280;49297;43.210;27.914;2023-08-20T09:09:19;101070.09;;;33.78;30.75
63204;BME280;49297;43.210;27.914;2023-08-20T09:11:46;101059.91;;;33.84;30.57
63204;BME280;49297;43.210;27.914;2023-08-20T09:14:28;101063.66;;;33.93;30.86
63204;BME280;49297;43.210;27.914;2023-08-20T09:16:59;101066.63;;;34.02;30.22
63204;BME280;49297;43.210;27.914;2023-08-20T09:19:31;101055.31;;;34.08;30.99
63204;BME280;49297;43.210;27.914;2023-08-20T09:22:00;101077.56;;;34.07;34.04
63204;BME280;49297;43.210;27.914;2023-08-20T09:24:32;101063.00;;;34.06;31.56
63204;BME280;49297;43.210;27.914;2023-08-20T09:26:59;101075.59;;;34.12;30.94
63204;BME280;49297;43.210;27.914;2023-08-20T09:29:25;101074.19;;;34.15;34.69
63204;BME280;49297;43.210;27.914;2023-08-20T09:32:00;101071.78;;;34.08;38.03
63204;BME280;49297;43.210;27.914;2023-08-20T09:34:36;101062.84;;;33.92;39.50
63204;BME280;49297;43.210;27.914;2023-08-20T09:37:02;101064.03;;;33.81;39.94
63204;BME280;49297;43.210;27.914;2023-08-20T09:39:28;101064.06;;;33.76;39.85
63204;BME280;49297;43.210;27.914;2023-08-20T09:41:55;101062.16;;;33.76;39.40
63204;BME280;49297;43.210;27.914;2023-08-20T09:44:23;101068.22;;;33.68;39.68
63204;BME280;49297;43.210;27.914;2023-08-20T09:46:49;101056.97;;;33.70;36.32
63204;BME280;49297;43.210;27.914;2023-08-20T09:49:17;101063.75;;;33.83;35.80
63204;BME280;49297;43.210;27.914;2023-08-20T09:51:46;101061.19;;;33.91;37.17
63204;BME280;49297;43.210;27.914;2023-08-20T09:55:13;101058.19;;;33.93;37.16
63204;BME280;49297;43.210;27.914;2023-08-20T09:57:18;101064.75;;;33.92;36.67
63204;BME280;49297;43.210;27.914;2023-08-20T09:59:49;101063.94;;;33.91;36.85
63204;BME280;49297;43.210;27.914;2023-08-20T10:02:16;101063.13;;;33.91;37.28
63204;BME280;49297;43.210;27.914;2023-08-20T10:04:42;101065.38;;;33.84;36.72
63204;BME280;49297;43.210;27.914;2023-08-20T10:07:12;101068.41;;;33.82;37.16
63204;BME280;49297;43.210;27.914;2023-08-20T10:09:42;101068.69;;;33.81;37.65
63204;BME280;49297;43.210;27.914;2023-08-20T10:12:13;101063.81;;;33.72;38.74
63204;BME280;49297;43.210;27.914;2023-08-20T10:14:39;101065.78;;;33.67;39.13
63204;BME280;49297;43.210;27.914;2023-08-20T10:17:08;101068.22;;;33.63;38.33
63204;BME280;49297;43.210;27.914;2023-08-20T10:19:38;101076.47;;;33.63;38.44
63204;BME280;49297;43.210;27.914;2023-08-20T10:22:04;101075.66;;;33.63;39.39
63204;BME280;49297;43.210;27.914;2023-08-20T10:25:01;101073.22;;;33.56;39.49
63204;BME280;49297;43.210;27.914;2023-08-20T10:27:35;101072.47;;;33.45;40.36
63204;BME280;49297;43.210;27.914;2023-08-20T10:30:07;101072.47;;;33.40;40.47
63204;BME280;49297;43.210;27.914;2023-08-20T10:32:50;101070.00;;;33.38;39.96
63204;BME280;49297;43.210;27.914;2023-08-20T10:35:28;101063.97;;;33.42;39.63
63204;BME280;49297;43.210;27.914;2023-08-20T10:38:11;101060.38;;;33.46;38.03
63204;BME280;49297;43.210;27.914;2023-08-20T10:40:54;101070.47;;;33.56;36.96
63204;BME280;49297;43.210;27.914;2023-08-20T10:43:32;101065.75;;;33.62;37.18
63204;BME280;49297;43.210;27.914;2023-08-20T10:46:19;101072.91;;;33.63;37.05
63204;BME280;49297;43.210;27.914;2023-08-20T10:48:57;101060.53;;;33.65;35.78
63204;BME280;49297;43.210;27.914;2023-08-20T10:51:30;101074.50;;;33.74;36.63
63204;BME280;49297;43.210;27.914;2023-08-20T11:01:57;101068.31;;;34.32;30.87
63204;BME280;49297;43.210;27.914;2023-08-20T11:04:27;101065.09;;;34.49;31.30
63204;BME280;49297;43.210;27.914;2023-08-20T11:06:55;101078.41;;;34.71;31.46
63204;BME280;49297;43.210;27.914;2023-08-20T11:09:22;101078.25;;;34.81;32.59
63204;BME280;49297;43.210;27.914;2023-08-20T11:11:48;101076.63;;;34.80;33.71
63204;BME280;49297;43.210;27.914;2023-08-20T11:14:15;101075.59;;;34.76;34.09
63204;BME280;49297;43.210;27.914;2023-08-20T11:16:42;101072.47;;;34.83;34.76
63204;BME280;49297;43.210;27.914;2023-08-20T11:19:09;101068.03;;;34.87;34.70
63204;BME280;49297;43.210;27.914;2023-08-20T11:21:40;101073.81;;;35.09;34.55
63204;BME280;49297;43.210;27.914;2023-08-20T11:24:06;101062.28;;;35.32;34.47
63204;BME280;49297;43.210;27.914;2023-08-20T11:26:33;101067.63;;;35.61;34.52
63204;BME280;49297;43.210;27.914;2023-08-20T11:29:09;101062.22;;;35.94;33.66
63204;BME280;49297;43.210;27.914;2023-08-20T11:31:36;101065.34;;;36.20;33.27
63204;BME280;49297;43.210;27.914;2023-08-20T11:34:02;101069.63;;;36.59;32.42
63204;BME280;49297;43.210;27.914;2023-08-20T11:36:28;101069.13;;;36.99;31.42
63204;BME280;49297;43.210;27.914;2023-08-20T11:38:55;101075.25;;;37.37;29.96
63204;BME280;49297;43.210;27.914;2023-08-20T11:41:21;101073.63;;;37.95;29.26
63204;BME280;49297;43.210;27.914;2023-08-20T11:43:48;101065.19;;;38.45;28.61
63204;BME280;49297;43.210;27.914;2023-08-20T11:46:15;101061.31;;;38.95;27.32
63204;BME280;49297;43.210;27.914;2023-08-20T11:49:02;101071.38;;;39.49;25.78
63204;BME280;49297;43.210;27.914;2023-08-20T11:51:47;101065.66;;;39.80;25.28
63204;BME280;49297;43.210;27.914;2023-08-20T11:54:17;101059.47;;;40.01;25.31
63204;BME280;49297;43.210;27.914;2023-08-20T11:56:48;101051.31;;;40.04;24.67
63204;BME280;49297;43.210;27.914;2023-08-20T11:59:15;101053.03;;;40.26;24.52
63204;BME280;49297;43.210;27.914;2023-08-20T12:01:42;101050.19;;;40.52;24.15
63204;BME280;49297;43.210;27.914;2023-08-20T12:04:09;101052.00;;;40.87;24.11
63204;BME280;49297;43.210;27.914;2023-08-20T12:06:36;101048.50;;;41.20;23.83
63204;BME280;49297;43.210;27.914;2023-08-20T12:09:22;101047.22;;;41.17;23.60
63204;BME280;49297;43.210;27.914;2023-08-20T12:11:49;101042.78;;;41.25;24.34
63204;BME280;49297;43.210;27.914;2023-08-20T12:14:17;101044.34;;;41.35;23.81
63204;BME280;49297;43.210;27.914;2023-08-20T12:16:43;101037.88;;;41.43;23.80
63204;BME280;49297;43.210;27.914;2023-08-20T12:19:09;101042.84;;;41.37;23.70
63204;BME280;49297;43.210;27.914;2023-08-20T12:21:35;101040.25;;;41.32;24.02
63204;BME280;49297;43.210;27.914;2023-08-20T12:24:00;101042.63;;;41.42;24.09
63204;BME280;49297;43.210;27.914;2023-08-20T12:26:26;101047.19;;;41.68;23.96
63204;BME280;49297;43.210;27.914;2023-08-20T12:28:52;101043.06;;;41.87;23.68
63204;BME280;49297;43.210;27.914;2023-08-20T12:31:17;101050.69;;;41.77;24.02
63204;BME280;49297;43.210;27.914;2023-08-20T12:33:43;101046.44;;;41.38;23.98
63204;BME280;49297;43.210;27.914;2023-08-20T12:36:09;101044.44;;;41.17;24.99
63204;BME280;49297;43.210;27.914;2023-08-20T12:38:34;101044.84;;;41.07;25.00
63204;BME280;49297;43.210;27.914;2023-08-20T12:41:01;101046.44;;;40.87;24.86
63204;BME280;49297;43.210;27.914;2023-08-20T12:43:29;101040.41;;;40.46;25.50
63204;BME280;49297;43.210;27.914;2023-08-20T12:45:55;101044.41;;;40.19;26.27
63204;BME280;49297;43.210;27.914;2023-08-20T12:48:20;101041.03;;;39.96;26.72
63204;BME280;49297;43.210;27.914;2023-08-20T12:50:46;101042.06;;;39.56;26.66
63204;BME280;49297;43.210;27.914;2023-08-20T12:53:12;101042.00;;;39.13;27.44
63204;BME280;49297;43.210;27.914;2023-08-20T12:55:38;101051.44;;;38.63;27.82
63204;BME280;49297;43.210;27.914;2023-08-20T12:58:04;101042.88;;;38.11;28.15
63204;BME280;49297;43.210;27.914;2023-08-20T13:00:29;101041.44;;;37.54;29.54